Time;durP1;ratioP1;P1;durP2;ratioP2;P2;SDS_P1;SDS_P2;PMS_P1;PMS_P2;Temp;Humidity;BMP_temperature;BMP_pressure;BME280_temperature;BME280_humidity;BME280_pressure;Samples;Min_cycle;Max_cycle;Signal;HPM_P1;HPM_P2
2023/01/18 00:00:38;;;;;;;10.73;7.50;;;;;;;;;;6271326;28;20276;-79
2023/01/18 00:03:43;;;;;;;9.43;6.90;;;;;;;;;;6288910;28;20294;-80
2023/01/18 00:06:48;;;;;;;9.77;7.13;;;;;;;;;;6288939;28;20268;-81
2023/01/18 00:09:55;;;;;;;8.60;6.23;;;;;;;;;;6267791;28;20281;-80
2023/01/18 00:13:00;;;;;;;7.90;6.40;;;;;;;;;;6285701;28;20287;-80
2023/01/18 00:16:08;;;;;;;6.53;5.50;;;;;;;;;;6289624;28;20269;-80
2023/01/18 00:19:15;;;;;;;7.03;5.87;;;;;;;;;;6288570;28;20296;-80
2023/01/18 00:22:20;;;;;;;5.57;4.97;;;;;;;;;;6288546;28;20277;-81
2023/01/18 00:25:25;;;;;;;7.30;4.97;;;;;;;;;;6275006;28;20581;-81
2023/01/18 00:28:31;;;;;;;7.00;4.97;;;;;;;;;;6245470;28;20322;-80
2023/01/18 00:31:38;;;;;;;4.40;4.03;;;;;;;;;;6263654;28;20276;-81
2023/01/18 00:34:43;;;;;;;5.57;4.20;;;;;;;;;;6263421;28;20296;-81
2023/01/18 00:37:49;;;;;;;4.73;4.10;;;;;;;;;;6263140;28;20265;-83
2023/01/18 00:40:54;;;;;;;3.87;3.47;;;;;;;;;;6264054;28;20274;-81
2023/01/18 00:43:58;;;;;;;2.03;2.00;;;;;;;;;;6262634;28;20301;-81
2023/01/18 00:47:05;;;;;;;5.47;1.90;;;;;;;;;;6263083;28;20271;-81
2023/01/18 00:50:12;;;;;;;4.57;1.97;;;;;;;;;;6263149;28;20293;-80
2023/01/18 00:53:17;;;;;;;1.90;1.80;;;;;;;;;;6263322;28;20299;-81
2023/01/18 00:56:23;;;;;;;1.63;1.53;;;;;;;;;;6263190;28;20275;-79
2023/01/18 00:59:28;;;;;;;2.20;1.50;;;;;;;;;;6244956;28;20443;-80
2023/01/18 01:02:34;;;;;;;1.10;1.10;;;;;;;;;;6263422;28;20468;-81
2023/01/18 01:09:02;;;;;;;1.47;1.30;;;;;;;;;;6262986;28;20575;-81
2023/01/18 01:29:04;;;;;;;1.40;1.00;;;;;;;;;;6286601;28;20298;-80
2023/01/18 01:32:12;;;;;;;1.00;1.00;;;;;;;;;;6287540;28;20338;-80
2023/01/18 01:35:19;;;;;;;0.90;0.90;;;;;;;;;;6287368;28;20300;-81
2023/01/18 01:38:25;;;;;;;2.27;0.90;;;;;;;;;;6286254;28;20492;-80
2023/01/18 01:41:33;;;;;;;1.90;0.90;;;;;;;;;;6269397;28;20268;-80
2023/01/18 01:44:50;;;;;;;0.83;0.83;;;;;;;;;;6286623;28;20295;-81
2023/01/18 01:47:57;;;;;;;0.90;0.90;;;;;;;;;;6286251;28;20300;-80
2023/01/18 01:51:04;;;;;;;1.13;1.10;;;;;;;;;;6287042;28;20274;-80
2023/01/18 01:54:15;;;;;;;1.00;0.90;;;;;;;;;;6286456;28;20298;-81
2023/01/18 01:57:22;;;;;;;1.83;0.90;;;;;;;;;;6287003;28;20268;-80
2023/01/18 02:00:28;;;;;;;1.00;1.00;;;;;;;;;;6286957;28;20298;-81
2023/01/18 02:03:33;;;;;;;1.10;1.10;;;;;;;;;;6286547;28;20479;-80
2023/01/18 02:06:41;;;;;;;1.40;1.40;;;;;;;;;;6286962;28;20288;-80
2023/01/18 02:09:47;;;;;;;3.17;1.37;;;;;;;;;;6283783;28;20295;-80
2023/01/18 02:12:53;;;;;;;1.27;1.27;;;;;;;;;;6282573;28;20266;-81
2023/01/18 02:16:06;;;;;;;1.30;1.30;;;;;;;;;;6287666;28;20450;-81
2023/01/18 02:19:25;;;;;;;1.00;1.00;;;;;;;;;;6287313;28;20298;-80
2023/01/18 02:22:45;;;;;;;1.20;1.20;;;;;;;;;;6288393;28;20320;-80
2023/01/18 02:26:16;;;;;;;1.00;1.00;;;;;;;;;;6288418;28;20294;-80
2023/01/18 02:29:30;;;;;;;1.10;1.10;;;;;;;;;;6270607;28;20311;-81
2023/01/18 02:32:58;;;;;;;2.93;1.10;;;;;;;;;;6287304;28;20275;-80
2023/01/18 02:36:05;;;;;;;0.80;0.80;;;;;;;;;;6287801;28;20303;-82
2023/01/18 02:39:22;;;;;;;0.93;0.93;;;;;;;;;;6286580;28;20295;-82
2023/01/18 02:49:21;;;;;;;0.70;0.70;;;;;;;;;;6284675;28;20314;-81
2023/01/18 02:52:39;;;;;;;0.80;0.80;;;;;;;;;;6267431;28;20511;-80
2023/01/18 02:55:48;;;;;;;0.77;0.77;;;;;;;;;;6284236;28;20276;-82
2023/01/18 02:58:59;;;;;;;0.90;0.90;;;;;;;;;;6285235;28;20297;-80
2023/01/18 03:02:08;;;;;;;1.00;1.00;;;;;;;;;;6285433;28;20293;-80
2023/01/18 03:05:14;;;;;;;1.03;1.03;;;;;;;;;;6267682;28;20312;-80
2023/01/18 03:08:24;;;;;;;0.90;0.90;;;;;;;;;;6285244;28;20306;-80
2023/01/18 03:11:34;;;;;;;0.80;0.80;;;;;;;;;;6268655;28;20266;-80
2023/01/18 03:14:43;;;;;;;2.50;0.70;;;;;;;;;;6262371;28;20496;-81
2023/01/18 03:17:52;;;;;;;1.33;0.90;;;;;;;;;;6263986;28;20279;-81
2023/01/18 03:20:58;;;;;;;1.10;1.00;;;;;;;;;;6265871;28;20271;-81
2023/01/18 03:24:07;;;;;;;1.17;1.17;;;;;;;;;;6265732;28;20319;-81
2023/01/18 03:34:08;;;;;;;1.10;1.10;;;;;;;;;;6264917;28;20295;-80
2023/01/18 03:37:16;;;;;;;0.90;0.90;;;;;;;;;;6265412;28;20278;-81
2023/01/18 03:40:24;;;;;;;1.03;0.93;;;;;;;;;;6264978;28;20487;-81
2023/01/18 03:43:35;;;;;;;0.70;0.70;;;;;;;;;;6264677;28;20322;-79
2023/01/18 03:46:42;;;;;;;1.20;0.90;;;;;;;;;;6263739;28;20481;-81
2023/01/18 03:49:49;;;;;;;3.97;0.77;;;;;;;;;;6264878;28;20299;-81
2023/01/18 03:52:58;;;;;;;0.80;0.80;;;;;;;;;;6264958;28;20318;-80
2023/01/18 03:56:08;;;;;;;1.23;1.00;;;;;;;;;;6263788;28;20466;-80
2023/01/18 03:59:14;;;;;;;0.97;0.97;;;;;;;;;;6264276;28;20309;-80
2023/01/18 04:02:21;;;;;;;1.50;1.20;;;;;;;;;;6274692;28;20398;-80
2023/01/18 04:05:28;;;;;;;1.43;1.33;;;;;;;;;;6272947;28;20307;-81
2023/01/18 04:08:36;;;;;;;2.20;1.20;;;;;;;;;;6263853;28;20295;-81
2023/01/18 04:11:41;;;;;;;1.83;1.50;;;;;;;;;;6264491;28;20267;-81
2023/01/18 04:14:46;;;;;;;1.30;1.20;;;;;;;;;;6263989;28;20600;-82
2023/01/18 04:17:54;;;;;;;1.10;1.10;;;;;;;;;;6263830;28;20310;-81
2023/01/18 04:21:01;;;;;;;1.43;1.33;;;;;;;;;;6268955;28;20289;-81
2023/01/18 04:24:06;;;;;;;2.80;1.30;;;;;;;;;;6288441;28;20303;-80
2023/01/18 04:27:11;;;;;;;1.50;1.40;;;;;;;;;;6270872;28;20293;-81
2023/01/18 04:30:17;;;;;;;4.27;1.37;;;;;;;;;;6288961;28;20302;-81
2023/01/18 04:33:25;;;;;;;1.60;1.10;;;;;;;;;;6288760;28;20295;-79
2023/01/18 04:36:32;;;;;;;1.70;1.43;;;;;;;;;;6280468;28;20425;-80
2023/01/18 04:39:38;;;;;;;2.07;1.40;;;;;;;;;;6270738;28;20303;-82
2023/01/18 04:42:43;;;;;;;1.97;1.60;;;;;;;;;;6288316;28;20285;-81
2023/01/18 04:45:54;;;;;;;2.40;1.30;;;;;;;;;;6288859;28;20446;-80
2023/01/18 04:48:59;;;;;;;2.00;1.30;;;;;;;;;;6288555;28;20302;-81
2023/01/18 04:52:07;;;;;;;4.03;1.37;;;;;;;;;;6288737;28;20274;-80
2023/01/18 04:55:14;;;;;;;1.40;1.30;;;;;;;;;;6288507;28;20299;-81
2023/01/18 04:58:20;;;;;;;1.63;1.53;;;;;;;;;;6290256;28;20302;-80
2023/01/18 05:01:25;;;;;;;3.13;1.30;;;;;;;;;;6292229;28;20299;-79
2023/01/18 05:04:31;;;;;;;1.80;1.43;;;;;;;;;;6292030;28;20601;-81
2023/01/18 05:07:37;;;;;;;1.77;1.33;;;;;;;;;;6288118;28;20411;-80
2023/01/18 05:10:42;;;;;;;4.77;1.33;;;;;;;;;;6276700;28;20287;-81
2023/01/18 05:13:47;;;;;;;1.30;1.20;;;;;;;;;;6246520;28;20314;-80
2023/01/18 05:16:52;;;;;;;1.80;0.93;;;;;;;;;;6268412;28;20247;-81
2023/01/18 05:19:59;;;;;;;1.90;1.10;;;;;;;;;;6280053;28;20243;-80
2023/01/18 05:23:09;;;;;;;2.00;1.00;;;;;;;;;;6279065;28;20258;-79
2023/01/18 05:26:17;;;;;;;1.00;1.00;;;;;;;;;;6272874;28;20555;-82
2023/01/18 05:29:22;;;;;;;1.00;1.00;;;;;;;;;;6247806;28;20323;-81
2023/01/18 05:32:28;;;;;;;0.90;0.90;;;;;;;;;;6264669;28;20268;-81
2023/01/18 05:35:33;;;;;;;2.97;1.10;;;;;;;;;;6261767;28;20285;-82
2023/01/18 05:38:39;;;;;;;4.90;1.20;;;;;;;;;;6261822;28;20302;-80
2023/01/18 05:41:44;;;;;;;2.70;1.50;;;;;;;;;;6263096;28;20275;-79
2023/01/18 05:44:49;;;;;;;4.00;1.30;;;;;;;;;;6263436;28;20505;-80
2023/01/18 05:47:57;;;;;;;1.13;0.90;;;;;;;;;;6230017;28;20295;-81
2023/01/18 05:51:06;;;;;;;1.40;1.07;;;;;;;;;;6263382;28;20271;-80
2023/01/18 05:54:13;;;;;;;2.00;1.03;;;;;;;;;;6264102;28;20303;-81
2023/01/18 05:57:18;;;;;;;1.60;0.93;;;;;;;;;;6263713;28;20492;-80
2023/01/18 06:00:24;;;;;;;1.57;1.00;;;;;;;;;;6254558;28;20298;-81
2023/01/18 06:03:29;;;;;;;1.50;0.87;;;;;;;;;;6262372;28;20291;-80
2023/01/18 06:06:34;;;;;;;3.53;1.20;;;;;;;;;;6262259;28;20266;-78
2023/01/18 06:09:41;;;;;;;1.00;1.00;;;;;;;;;;6259903;28;20303;-80
2023/01/18 06:12:46;;;;;;;0.90;0.90;;;;;;;;;;6236418;28;20277;-80
2023/01/18 06:15:53;;;;;;;1.37;1.07;;;;;;;;;;6219739;28;20281;-80
2023/01/18 06:18:58;;;;;;;1.10;1.10;;;;;;;;;;6219347;28;20311;-81
2023/01/18 06:22:04;;;;;;;1.60;1.60;;;;;;;;;;6237275;28;20443;-81
2023/01/18 06:25:13;;;;;;;5.07;2.50;;;;;;;;;;6236074;28;20301;-79
2023/01/18 06:28:21;;;;;;;6.93;2.83;;;;;;;;;;6227882;28;20305;-80
2023/01/18 06:31:26;;;;;;;4.43;1.70;;;;;;;;;;6236736;28;20342;-79
2023/01/18 06:34:32;;;;;;;5.33;1.60;;;;;;;;;;6236268;28;20297;-79
2023/01/18 06:37:37;;;;;;;2.43;1.60;;;;;;;;;;6236294;28;20276;-80
2023/01/18 06:40:43;;;;;;;1.30;1.30;;;;;;;;;;6236755;28;20281;-79
2023/01/18 06:43:50;;;;;;;0.93;0.93;;;;;;;;;;6235838;28;20560;-79
2023/01/18 06:46:55;;;;;;;3.67;1.13;;;;;;;;;;6236503;28;20453;-80
2023/01/18 06:50:00;;;;;;;1.17;1.07;;;;;;;;;;6236568;28;20298;-79
2023/01/18 06:53:06;;;;;;;2.63;1.13;;;;;;;;;;6238234;28;20319;-78
2023/01/18 06:56:14;;;;;;;1.20;0.80;;;;;;;;;;6251730;28;20219;-78
2023/01/18 06:59:20;;;;;;;2.83;1.13;;;;;;;;;;6243501;28;20244;-78
2023/01/18 07:02:25;;;;;;;1.33;1.23;;;;;;;;;;6251891;28;20255;-79
2023/01/18 07:05:30;;;;;;;2.33;1.10;;;;;;;;;;6249531;28;20259;-77
2023/01/18 07:08:36;;;;;;;1.33;1.17;;;;;;;;;;6238362;28;20304;-78
2023/01/18 07:11:42;;;;;;;4.40;1.00;;;;;;;;;;6230682;28;20270;-80
2023/01/18 07:14:56;;;;;;;1.00;1.00;;;;;;;;;;6261025;28;20299;-80
2023/01/18 07:18:01;;;;;;;1.20;1.10;;;;;;;;;;6259799;28;20327;-79
2023/01/18 07:21:08;;;;;;;3.57;1.30;;;;;;;;;;6260372;28;20266;-81
2023/01/18 07:24:14;;;;;;;1.00;1.00;;;;;;;;;;6259904;28;20299;-80
2023/01/18 07:27:21;;;;;;;3.17;1.17;;;;;;;;;;6259975;28;20266;-79
2023/01/18 07:30:26;;;;;;;3.70;1.10;;;;;;;;;;6260071;28;20471;-79
2023/01/18 07:33:31;;;;;;;1.20;1.10;;;;;;;;;;6258788;28;20639;-80
2023/01/18 07:36:38;;;;;;;1.67;1.57;;;;;;;;;;6260592;28;20278;-78
2023/01/18 07:39:43;;;;;;;2.17;1.33;;;;;;;;;;6259956;28;20290;-79
2023/01/18 07:42:49;;;;;;;2.30;1.00;;;;;;;;;;6259404;28;20363;-80
2023/01/18 07:45:57;;;;;;;4.67;1.70;;;;;;;;;;6260143;28;20555;-79
2023/01/18 07:49:04;;;;;;;2.73;1.10;;;;;;;;;;6259355;28;20304;-81
2023/01/18 07:52:11;;;;;;;3.70;1.60;;;;;;;;;;6260516;28;20402;-79
2023/01/18 07:55:17;;;;;;;1.83;1.33;;;;;;;;;;6242441;28;20331;-79
2023/01/18 07:58:24;;;;;;;1.43;1.33;;;;;;;;;;6259649;28;20323;-78
2023/01/18 08:01:29;;;;;;;3.77;1.17;;;;;;;;;;6271052;28;20290;-79
2023/01/18 08:04:35;;;;;;;2.20;1.40;;;;;;;;;;6289689;28;20286;-80
2023/01/18 08:07:40;;;;;;;3.70;1.30;;;;;;;;;;6288669;28;20275;-79
2023/01/18 08:10:45;;;;;;;6.27;1.33;;;;;;;;;;6278680;28;20282;-79
2023/01/18 08:13:52;;;;;;;2.87;1.20;;;;;;;;;;6263153;28;20295;-80
2023/01/18 08:16:57;;;;;;;1.63;1.17;;;;;;;;;;6264641;28;20272;-80
2023/01/18 08:20:04;;;;;;;1.47;1.27;;;;;;;;;;6264031;28;20298;-79
2023/01/18 08:23:10;;;;;;;3.00;1.40;;;;;;;;;;6263804;28;20294;-78
2023/01/18 08:26:15;;;;;;;1.17;1.03;;;;;;;;;;6261104;28;20559;-79
2023/01/18 08:29:21;;;;;;;3.97;1.10;;;;;;;;;;6263853;28;20306;-80
2023/01/18 08:32:27;;;;;;;1.80;1.13;;;;;;;;;;6264088;28;20267;-79
2023/01/18 08:35:34;;;;;;;4.90;1.20;;;;;;;;;;6264357;28;20275;-80
2023/01/18 08:38:40;;;;;;;1.13;1.13;;;;;;;;;;6263950;28;20630;-79
2023/01/18 08:41:46;;;;;;;1.83;1.07;;;;;;;;;;6264566;28;20268;-81
2023/01/18 08:44:52;;;;;;;3.87;1.23;;;;;;;;;;6264116;28;20294;-80
2023/01/18 08:47:59;;;;;;;1.23;1.10;;;;;;;;;;6262436;28;20297;-79
2023/01/18 08:51:05;;;;;;;3.03;1.30;;;;;;;;;;6280223;28;20299;-80
2023/01/18 08:54:11;;;;;;;2.30;1.50;;;;;;;;;;6279519;28;20269;-81
2023/01/18 08:57:17;;;;;;;7.00;1.87;;;;;;;;;;6264869;28;20477;-81
2023/01/18 09:00:27;;;;;;;5.90;1.57;;;;;;;;;;6262878;28;20595;-81
2023/01/18 09:03:32;;;;;;;7.23;2.17;;;;;;;;;;6285893;28;20301;-79
2023/01/18 09:06:38;;;;;;;2.77;1.80;;;;;;;;;;6289088;28;20270;-80
2023/01/18 09:09:43;;;;;;;5.30;2.10;;;;;;;;;;6288107;28;20311;-81
2023/01/18 09:12:48;;;;;;;5.80;2.27;;;;;;;;;;6286381;28;20259;-80
2023/01/18 09:16:02;;;;;;;7.03;2.30;;;;;;;;;;6287661;28;20328;-80
2023/01/18 09:19:08;;;;;;;13.70;2.70;;;;;;;;;;6286997;28;20306;-81
2023/01/18 09:22:14;;;;;;;4.10;2.97;;;;;;;;;;6287600;28;20327;-80
2023/01/18 09:25:19;;;;;;;3.43;2.10;;;;;;;;;;6287613;28;20558;-82
2023/01/18 09:28:25;;;;;;;8.80;2.33;;;;;;;;;;6270158;28;20294;-80
2023/01/18 09:31:32;;;;;;;3.70;1.83;;;;;;;;;;6286863;28;20294;-82
2023/01/18 09:34:38;;;;;;;6.60;1.80;;;;;;;;;;6286433;28;20302;-80
2023/01/18 09:37:43;;;;;;;16.37;3.07;;;;;;;;;;6269395;28;20266;-81
2023/01/18 09:40:49;;;;;;;4.70;2.50;;;;;;;;;;6287364;28;20283;-80
2023/01/18 09:43:56;;;;;;;2.40;2.03;;;;;;;;;;6286345;28;20299;-81
2023/01/18 09:47:04;;;;;;;2.30;1.70;;;;;;;;;;6287478;28;20274;-80
2023/01/18 09:50:16;;;;;;;3.30;2.00;;;;;;;;;;6287359;28;20300;-79
2023/01/18 09:53:29;;;;;;;3.10;2.20;;;;;;;;;;6286971;28;20294;-79
2023/01/18 09:56:42;;;;;;;4.87;1.67;;;;;;;;;;6284963;28;20280;-80
2023/01/18 09:59:54;;;;;;;5.30;1.73;;;;;;;;;;6268834;28;20295;-81
2023/01/18 10:03:06;;;;;;;1.90;1.50;;;;;;;;;;6286397;28;20298;-80
2023/01/18 10:06:16;;;;;;;2.27;1.83;;;;;;;;;;6286945;28;20266;-81
2023/01/18 10:09:23;;;;;;;6.93;2.07;;;;;;;;;;6268897;28;20294;-79
2023/01/18 10:12:36;;;;;;;2.50;2.17;;;;;;;;;;6279861;28;20267;-80
2023/01/18 10:15:42;;;;;;;4.50;2.30;;;;;;;;;;6285858;28;20277;-80
2023/01/18 10:18:52;;;;;;;3.40;2.27;;;;;;;;;;6286334;28;20293;-79
2023/01/18 10:22:02;;;;;;;2.90;1.80;;;;;;;;;;6269392;28;20280;-80
2023/01/18 10:25:16;;;;;;;5.13;2.10;;;;;;;;;;6286025;28;20319;-79
2023/01/18 10:28:32;;;;;;;3.50;2.07;;;;;;;;;;6269627;28;20465;-79
2023/01/18 10:31:45;;;;;;;7.63;2.07;;;;;;;;;;6288967;28;20283;-80
2023/01/18 10:34:53;;;;;;;6.23;2.00;;;;;;;;;;6286565;28;20300;-80
2023/01/18 10:38:02;;;;;;;4.83;2.03;;;;;;;;;;6268028;28;20304;-81
2023/01/18 10:41:18;;;;;;;2.87;2.00;;;;;;;;;;6286175;28;20277;-80
2023/01/18 10:44:23;;;;;;;2.30;2.07;;;;;;;;;;6285784;28;20308;-80
2023/01/18 10:47:29;;;;;;;4.40;1.87;;;;;;;;;;6285875;28;20558;-79
2023/01/18 10:50:38;;;;;;;4.93;2.33;;;;;;;;;;6258805;28;20291;-80
2023/01/18 10:53:44;;;;;;;13.27;2.23;;;;;;;;;;6269490;28;20300;-79
2023/01/18 10:56:49;;;;;;;2.40;2.20;;;;;;;;;;6287659;28;20268;-80
2023/01/18 10:59:56;;;;;;;5.57;1.80;;;;;;;;;;6269106;28;20323;-81
2023/01/18 11:03:03;;;;;;;3.57;1.77;;;;;;;;;;6271858;28;20296;-80
2023/01/18 11:06:15;;;;;;;4.30;1.80;;;;;;;;;;6299720;28;20243;-79
2023/01/18 11:09:41;;;;;;;5.03;1.93;;;;;;;;;;6298908;28;20248;-79
2023/01/18 11:12:51;;;;;;;4.57;2.07;;;;;;;;;;6263946;28;20267;-80
2023/01/18 11:16:16;;;;;;;4.03;1.73;;;;;;;;;;6260622;28;20467;-81
2023/01/18 11:19:22;;;;;;;4.10;1.80;;;;;;;;;;6260400;28;20297;-80
2023/01/18 11:22:31;;;;;;;3.03;2.10;;;;;;;;;;6260599;28;20271;-80
2023/01/18 11:25:38;;;;;;;8.17;1.80;;;;;;;;;;6242584;28;20274;-80
2023/01/18 11:28:48;;;;;;;5.27;1.80;;;;;;;;;;6260009;28;20417;-80
2023/01/18 11:31:54;;;;;;;1.70;1.60;;;;;;;;;;6242877;28;20295;-79
2023/01/18 11:35:00;;;;;;;4.23;1.43;;;;;;;;;;6261610;28;20296;-80
2023/01/18 11:38:07;;;;;;;10.87;1.60;;;;;;;;;;6264597;28;20289;-80
2023/01/18 11:41:17;;;;;;;3.67;1.40;;;;;;;;;;6265281;28;20275;-80
2023/01/18 11:44:24;;;;;;;3.00;1.47;;;;;;;;;;6264945;28;20307;-80
2023/01/18 11:47:35;;;;;;;3.93;1.33;;;;;;;;;;6264622;28;20269;-79
2023/01/18 11:50:43;;;;;;;1.53;1.40;;;;;;;;;;6264240;28;20305;-81
2023/01/18 11:53:56;;;;;;;1.60;1.40;;;;;;;;;;6265770;28;20620;-80
2023/01/18 11:57:09;;;;;;;3.10;1.40;;;;;;;;;;6265195;28;20301;-82
2023/01/18 12:00:15;;;;;;;1.93;1.23;;;;;;;;;;6264775;28;20462;-82
2023/01/18 12:03:38;;;;;;;3.07;1.50;;;;;;;;;;6264018;28;20299;-79
2023/01/18 12:06:50;;;;;;;3.33;1.40;;;;;;;;;;6247114;28;20273;-79
2023/01/18 12:09:58;;;;;;;4.63;1.30;;;;;;;;;;6264317;28;20300;-81
2023/01/18 12:13:22;;;;;;;4.73;1.27;;;;;;;;;;6264421;28;20298;-79
2023/01/18 12:16:39;;;;;;;3.87;1.27;;;;;;;;;;6264539;28;20565;-80
2023/01/18 12:19:53;;;;;;;1.67;1.07;;;;;;;;;;6262715;28;20307;-80
2023/01/18 12:23:39;;;;;;;3.27;1.20;;;;;;;;;;6262733;28;20288;-81
2023/01/18 12:26:52;;;;;;;5.40;1.13;;;;;;;;;;6193137;28;20275;-80
2023/01/18 12:30:12;;;;;;;1.87;1.13;;;;;;;;;;6271147;28;20295;-81
2023/01/18 12:33:27;;;;;;;2.77;1.07;;;;;;;;;;6288200;28;20294;-79
2023/01/18 12:37:24;;;;;;;1.73;1.10;;;;;;;;;;6288579;28;20268;-80
2023/01/18 12:40:37;;;;;;;2.43;1.10;;;;;;;;;;6171106;28;20491;-81
2023/01/18 12:43:53;;;;;;;1.93;1.60;;;;;;;;;;6270165;28;20604;-81
2023/01/18 12:47:11;;;;;;;2.67;1.20;;;;;;;;;;6288423;28;20291;-80
2023/01/18 12:50:22;;;;;;;3.00;1.10;;;;;;;;;;6271141;28;20299;-82
2023/01/18 12:53:34;;;;;;;3.20;1.30;;;;;;;;;;6270883;28;20465;-80
2023/01/18 12:56:40;;;;;;;2.20;1.10;;;;;;;;;;6288832;28;20267;-80
2023/01/18 12:59:53;;;;;;;2.20;1.27;;;;;;;;;;6287850;28;20615;-80
2023/01/18 13:02:59;;;;;;;3.60;1.00;;;;;;;;;;6287844;28;20288;-80
2023/01/18 13:06:04;;;;;;;1.10;1.03;;;;;;;;;;6288280;28;20264;-79
2023/01/18 13:09:13;;;;;;;1.20;1.10;;;;;;;;;;6287383;28;20302;-81
2023/01/18 13:12:19;;;;;;;1.53;1.20;;;;;;;;;;6269812;28;20289;-81
2023/01/18 13:15:36;;;;;;;4.73;1.23;;;;;;;;;;6270062;28;20309;-80
2023/01/18 13:18:44;;;;;;;5.33;1.77;;;;;;;;;;6287638;28;20307;-80
2023/01/18 13:22:00;;;;;;;1.60;1.50;;;;;;;;;;6270939;28;20275;-80
2023/01/18 13:25:26;;;;;;;1.53;1.13;;;;;;;;;;6269336;28;20299;-79
2023/01/18 13:28:31;;;;;;;7.23;1.57;;;;;;;;;;6287219;28;20294;-80
2023/01/18 13:31:38;;;;;;;1.37;1.27;;;;;;;;;;6287658;28;20294;-79
2023/01/18 13:34:47;;;;;;;5.17;1.27;;;;;;;;;;6288030;28;20293;-80
2023/01/18 13:37:54;;;;;;;3.93;1.30;;;;;;;;;;6288113;28;20294;-80
2023/01/18 13:41:02;;;;;;;2.63;1.17;;;;;;;;;;6287386;28;20275;-78
2023/01/18 13:44:31;;;;;;;4.23;1.47;;;;;;;;;;6269468;28;20298;-80
2023/01/18 13:47:55;;;;;;;4.37;1.10;;;;;;;;;;6286570;28;20426;-80
2023/01/18 13:51:01;;;;;;;6.23;2.27;;;;;;;;;;6287511;28;20447;-80
2023/01/18 13:54:06;;;;;;;5.87;1.47;;;;;;;;;;6286683;28;20298;-80
2023/01/18 13:57:17;;;;;;;5.50;1.57;;;;;;;;;;6268868;28;20305;-80
2023/01/18 14:00:24;;;;;;;5.63;1.37;;;;;;;;;;6268418;28;20299;-80
2023/01/18 14:03:33;;;;;;;4.37;1.33;;;;;;;;;;6286421;28;20602;-80
2023/01/18 14:06:41;;;;;;;6.43;1.20;;;;;;;;;;6286441;28;20264;-80
2023/01/18 14:09:48;;;;;;;4.23;1.33;;;;;;;;;;6284795;28;20295;-81
2023/01/18 14:12:55;;;;;;;2.90;1.00;;;;;;;;;;6285900;28;20302;-80
2023/01/18 14:16:01;;;;;;;4.73;1.10;;;;;;;;;;6286503;28;20276;-80
2023/01/18 14:19:16;;;;;;;4.33;1.10;;;;;;;;;;6285566;28;20291;-80
2023/01/18 14:22:33;;;;;;;3.63;1.20;;;;;;;;;;6286803;28;20260;-81
2023/01/18 14:25:59;;;;;;;1.47;1.37;;;;;;;;;;6285558;28;20270;-81
2023/01/18 14:29:07;;;;;;;1.63;1.10;;;;;;;;;;6285947;28;20296;-81
2023/01/18 14:32:17;;;;;;;3.30;1.70;;;;;;;;;;6268451;28;20283;-81
2023/01/18 14:35:24;;;;;;;12.40;1.70;;;;;;;;;;6285797;28;20298;-79
2023/01/18 14:38:30;;;;;;;5.70;1.53;;;;;;;;;;6284099;28;20309;-80
2023/01/18 14:41:38;;;;;;;5.63;1.53;;;;;;;;;;6285929;28;20586;-81
2023/01/18 14:44:46;;;;;;;6.93;1.50;;;;;;;;;;6285929;28;20310;-80
2023/01/18 14:48:08;;;;;;;6.77;1.60;;;;;;;;;;6285474;28;20293;-80
2023/01/18 14:51:19;;;;;;;7.53;1.63;;;;;;;;;;6285666;28;20264;-81
2023/01/18 14:54:25;;;;;;;1.73;1.20;;;;;;;;;;6285381;28;20370;-80
2023/01/18 14:57:30;;;;;;;4.33;1.10;;;;;;;;;;6285869;28;20271;-80
2023/01/18 15:00:46;;;;;;;3.83;1.20;;;;;;;;;;6264583;28;20274;-80
2023/01/18 15:03:54;;;;;;;3.33;1.57;;;;;;;;;;6267995;28;20491;-81
2023/01/18 15:07:05;;;;;;;5.73;1.50;;;;;;;;;;6268464;28;20281;-81
2023/01/18 15:10:17;;;;;;;4.33;1.60;;;;;;;;;;6279924;28;20298;-82
2023/01/18 15:13:26;;;;;;;6.17;1.43;;;;;;;;;;6270846;28;20298;-82
2023/01/18 15:16:32;;;;;;;2.73;1.40;;;;;;;;;;6302361;28;20234;-82
2023/01/18 15:19:40;;;;;;;2.83;1.70;;;;;;;;;;6301213;28;20292;-81
2023/01/18 15:22:49;;;;;;;7.73;1.27;;;;;;;;;;6286996;28;20280;-81
2023/01/18 15:25:55;;;;;;;1.53;1.43;;;;;;;;;;6286711;28;20610;-78
2023/01/18 15:29:14;;;;;;;2.77;1.50;;;;;;;;;;6267592;28;20397;-81
2023/01/18 15:32:21;;;;;;;4.10;1.40;;;;;;;;;;6285081;28;20306;-80
2023/01/18 15:35:27;;;;;;;5.33;1.53;;;;;;;;;;6284778;28;20448;-80
2023/01/18 15:38:35;;;;;;;3.93;1.77;;;;;;;;;;6267387;28;20295;-80
2023/01/18 15:41:40;;;;;;;1.90;1.50;;;;;;;;;;6284936;28;20281;-79
2023/01/18 15:44:49;;;;;;;4.50;1.70;;;;;;;;;;6284961;28;20299;-81
2023/01/18 15:47:55;;;;;;;2.10;1.90;;;;;;;;;;6284290;28;20466;-78
2023/01/18 15:51:07;;;;;;;5.50;1.90;;;;;;;;;;6285400;28;20431;-78
2023/01/18 15:54:19;;;;;;;6.27;1.50;;;;;;;;;;6284315;28;20307;-81
2023/01/18 15:57:24;;;;;;;5.80;1.80;;;;;;;;;;6267644;28;20443;-81
2023/01/18 16:00:40;;;;;;;2.57;1.90;;;;;;;;;;6267312;28;20295;-82
2023/01/18 16:03:56;;;;;;;5.10;2.00;;;;;;;;;;6285288;28;20317;-83
2023/01/18 16:07:34;;;;;;;3.07;1.97;;;;;;;;;;6285064;28;20373;-81
2023/01/18 16:10:49;;;;;;;2.10;1.90;;;;;;;;;;6283617;28;20266;-80
2023/01/18 16:13:58;;;;;;;1.87;1.70;;;;;;;;;;6284103;28;20290;-80
2023/01/18 16:17:06;;;;;;;2.20;1.50;;;;;;;;;;6285741;28;20275;-80
2023/01/18 16:20:16;;;;;;;1.80;1.70;;;;;;;;;;6280654;28;20245;-80
2023/01/18 16:23:21;;;;;;;9.00;2.20;;;;;;;;;;6303776;28;20251;-79
2023/01/18 16:26:30;;;;;;;5.40;2.00;;;;;;;;;;6303445;28;20238;-79
2023/01/18 16:29:44;;;;;;;5.97;2.97;;;;;;;;;;6303616;28;20243;-79
2023/01/18 16:32:50;;;;;;;3.63;2.10;;;;;;;;;;6275345;28;20294;-81
2023/01/18 16:35:55;;;;;;;6.23;2.00;;;;;;;;;;6272685;28;20431;-81
2023/01/18 16:39:03;;;;;;;2.00;1.77;;;;;;;;;;6271742;28;20305;-79
2023/01/18 16:42:52;;;;;;;7.43;1.80;;;;;;;;;;6288698;28;20259;-80
2023/01/18 16:45:58;;;;;;;1.90;1.80;;;;;;;;;;6289185;28;20432;-80
2023/01/18 16:49:03;;;;;;;2.50;1.60;;;;;;;;;;6292583;28;20286;-79
2023/01/18 16:52:11;;;;;;;3.63;2.20;;;;;;;;;;6305313;28;20226;-79
2023/01/18 16:55:17;;;;;;;3.03;1.90;;;;;;;;;;6303945;28;20306;-81
2023/01/18 16:58:25;;;;;;;2.20;2.10;;;;;;;;;;6279119;28;20387;-81
2023/01/18 17:01:30;;;;;;;3.63;1.90;;;;;;;;;;6289894;28;20302;-81
2023/01/18 17:04:36;;;;;;;3.17;1.80;;;;;;;;;;6287912;28;20287;-81
2023/01/18 17:07:41;;;;;;;9.70;2.47;;;;;;;;;;6268959;28;20275;-81
2023/01/18 17:10:48;;;;;;;6.10;2.40;;;;;;;;;;6288542;28;20267;-79
2023/01/18 17:13:54;;;;;;;4.90;2.17;;;;;;;;;;6287643;28;20480;-81
2023/01/18 17:17:01;;;;;;;6.53;3.13;;;;;;;;;;6287814;28;20268;-78
2023/01/18 17:20:17;;;;;;;3.13;2.17;;;;;;;;;;6286800;28;20294;-77
2023/01/18 17:23:24;;;;;;;4.63;2.30;;;;;;;;;;6261926;28;20295;-79
2023/01/18 17:26:29;;;;;;;3.47;2.40;;;;;;;;;;6287199;28;20271;-79
2023/01/18 17:29:36;;;;;;;2.33;2.13;;;;;;;;;;6269645;28;20291;-80
2023/01/18 17:32:43;;;;;;;4.37;2.20;;;;;;;;;;6286234;28;20271;-79
2023/01/18 17:35:50;;;;;;;6.67;2.13;;;;;;;;;;6269079;28;20392;-79
2023/01/18 17:38:56;;;;;;;5.10;1.90;;;;;;;;;;6287200;28;20310;-77
2023/01/18 17:42:01;;;;;;;7.30;2.00;;;;;;;;;;6287556;28;20446;-80
2023/01/18 17:45:13;;;;;;;4.40;2.00;;;;;;;;;;6286897;28;20304;-79
2023/01/18 17:48:18;;;;;;;5.30;2.07;;;;;;;;;;6286388;28;20583;-81
2023/01/18 17:51:23;;;;;;;3.60;2.27;;;;;;;;;;6287183;28;20272;-82
2023/01/18 17:54:32;;;;;;;2.43;2.07;;;;;;;;;;6286554;28;20298;-81
2023/01/18 17:57:37;;;;;;;3.80;2.27;;;;;;;;;;6286464;28;20290;-82
2023/01/18 18:00:44;;;;;;;3.87;2.63;;;;;;;;;;6285001;28;20275;-80
2023/01/18 18:03:51;;;;;;;2.80;2.37;;;;;;;;;;6288372;28;20299;-81
2023/01/18 18:06:57;;;;;;;4.23;2.33;;;;;;;;;;6287839;28;20495;-81
2023/01/18 18:10:03;;;;;;;5.00;2.73;;;;;;;;;;6282261;28;20607;-81
2023/01/18 18:13:08;;;;;;;6.77;2.50;;;;;;;;;;6266668;28;20289;-82
2023/01/18 18:16:15;;;;;;;3.80;2.67;;;;;;;;;;6286249;28;20291;-80
2023/01/18 18:19:24;;;;;;;2.57;2.37;;;;;;;;;;6285004;28;20300;-81
2023/01/18 18:22:30;;;;;;;2.73;2.50;;;;;;;;;;6286956;28;20267;-79
2023/01/18 18:25:36;;;;;;;6.47;2.47;;;;;;;;;;6284495;28;20277;-80
2023/01/18 18:28:41;;;;;;;4.37;2.40;;;;;;;;;;6286155;28;20294;-79
2023/01/18 18:31:48;;;;;;;5.10;2.50;;;;;;;;;;6286167;28;20268;-80
2023/01/18 18:34:53;;;;;;;3.63;2.43;;;;;;;;;;6286233;28;20299;-79
2023/01/18 18:37:59;;;;;;;2.43;2.33;;;;;;;;;;6267497;28;20285;-81
2023/01/18 18:41:05;;;;;;;4.60;2.70;;;;;;;;;;6286188;28;20267;-78
2023/01/18 18:44:11;;;;;;;4.83;2.47;;;;;;;;;;6284912;28;20307;-77
2023/01/18 18:47:17;;;;;;;4.50;2.23;;;;;;;;;;6268421;28;20279;-80
2023/01/18 18:50:23;;;;;;;4.20;3.00;;;;;;;;;;6283866;28;20300;-78
2023/01/18 18:53:28;;;;;;;3.07;2.60;;;;;;;;;;6284907;28;20295;-79
2023/01/18 18:56:43;;;;;;;6.13;2.63;;;;;;;;;;6268144;28;20467;-79
2023/01/18 18:59:49;;;;;;;4.43;2.60;;;;;;;;;;6285154;28;20486;-79
2023/01/18 19:03:00;;;;;;;7.77;2.80;;;;;;;;;;6266680;28;20464;-79
2023/01/18 19:06:08;;;;;;;4.70;2.70;;;;;;;;;;6285566;28;20275;-85
2023/01/18 19:09:14;;;;;;;5.20;2.77;;;;;;;;;;6285979;28;20628;-86
2023/01/18 19:12:19;;;;;;;2.97;2.70;;;;;;;;;;6285943;28;20285;-79
2023/01/18 19:15:24;;;;;;;4.57;2.90;;;;;;;;;;6284482;28;20295;-76
2023/01/18 19:18:31;;;;;;;2.57;2.37;;;;;;;;;;6266556;28;20292;-78
2023/01/18 19:21:37;;;;;;;6.30;2.40;;;;;;;;;;6285097;28;20272;-79
2023/01/18 19:24:42;;;;;;;5.40;2.60;;;;;;;;;;6284653;28;20295;-77